Time;durP1;ratioP1;P1;durP2;ratioP2;P2;SDS_P1;SDS_P2;PMS_P1;PMS_P2;Temp;Humidity;BMP_temperature;BMP_pressure;BME280_temperature;BME280_humidity;BME280_pressure;Samples;Min_cycle;Max_cycle;Signal;HPM_P1;HPM_P2
2023/09/28 00:03:02;;;;;;;2.13;2.03;;;15.60;99.90;;;;;;6251986;23;20377;-83
2023/09/28 00:05:30;;;;;;;3.43;3.13;;;15.60;99.90;;;;;;6256593;23;20371;-86
2023/09/28 00:08:02;;;;;;;2.00;1.90;;;15.40;99.90;;;;;;6229298;23;20401;-83
2023/09/28 00:10:30;;;;;;;2.40;2.30;;;15.60;99.90;;;;;;6261231;23;20772;-82
2023/09/28 00:12:57;;;;;;;2.57;2.47;;;15.60;99.90;;;;;;6266007;22;20409;-82
2023/09/28 00:15:25;;;;;;;1.10;1.10;;;15.50;99.90;;;;;;6259890;23;20429;-80
2023/09/28 00:17:52;;;;;;;3.57;3.37;;;15.50;99.90;;;;;;6253650;23;20382;-84
2023/09/28 00:20:22;;;;;;;2.83;2.60;;;15.40;99.90;;;;;;6252469;23;20393;-86
2023/09/28 00:22:53;;;;;;;4.17;3.80;;;15.30;99.90;;;;;;6256035;23;20414;-84
2023/09/28 00:25:23;;;;;;;2.07;1.97;;;15.40;99.90;;;;;;6230705;23;20375;-85
2023/09/28 00:27:52;;;;;;;1.97;1.87;;;15.40;99.90;;;;;;6251718;23;20413;-84
2023/09/28 00:30:22;;;;;;;3.80;3.50;;;15.40;99.90;;;;;;6251852;23;20397;-82
2023/09/28 00:32:51;;;;;;;1.60;1.53;;;15.40;99.90;;;;;;6251121;23;20363;-83
2023/09/28 00:35:19;;;;;;;3.23;2.60;;;15.30;99.90;;;;;;6251212;23;20441;-80
2023/09/28 00:37:48;;;;;;;1.83;1.73;;;15.30;99.90;;;;;;6224364;23;20427;-82
2023/09/28 00:40:19;;;;;;;2.23;2.13;;;15.30;99.90;;;;;;6250495;23;20405;-82
2023/09/28 00:42:48;;;;;;;1.67;1.57;;;15.20;99.90;;;;;;6251323;23;20379;-81
2023/09/28 00:45:16;;;;;;;6.13;2.20;;;15.30;99.90;;;;;;6253211;23;20376;-87
2023/09/28 00:47:45;;;;;;;2.83;2.73;;;15.20;99.90;;;;;;6252046;23;20705;-82
2023/09/28 00:50:15;;;;;;;2.37;2.27;;;15.20;99.90;;;;;;6253259;23;20397;-84
2023/09/28 00:52:54;;;;;;;1.50;1.40;;;15.10;99.90;;;;;;6253006;23;20379;-85
2023/09/28 00:55:29;;;;;;;1.87;1.80;;;15.00;99.90;;;;;;6253358;23;20483;-84
2023/09/28 00:58:03;;;;;;;2.03;1.87;;;14.90;99.90;;;;;;6253286;23;20598;-83
2023/09/28 01:00:32;;;;;;;2.40;2.30;;;15.00;99.90;;;;;;6253364;23;20385;-83
2023/09/28 01:03:08;;;;;;;1.70;1.60;;;14.90;99.90;;;;;;6251699;23;20381;-83
2023/09/28 01:05:40;;;;;;;3.57;2.13;;;14.90;99.90;;;;;;6226943;23;20426;-87
2023/09/28 01:08:11;;;;;;;1.13;1.13;;;14.90;99.90;;;;;;6254156;23;20583;-82
2023/09/28 01:10:40;;;;;;;3.27;3.07;;;14.80;99.90;;;;;;6254848;23;20522;-82
2023/09/28 01:13:12;;;;;;;1.00;1.00;;;14.80;99.90;;;;;;6270638;22;20388;-81
2023/09/28 01:15:44;;;;;;;2.63;1.60;;;14.80;99.90;;;;;;6264176;22;20419;-83
2023/09/28 01:18:16;;;;;;;2.60;2.50;;;14.70;99.90;;;;;;6273739;22;20359;-82
2023/09/28 01:20:45;;;;;;;1.73;1.63;;;14.80;99.90;;;;;;6267169;22;20405;-80
2023/09/28 01:23:13;;;;;;;2.00;1.90;;;14.60;99.90;;;;;;6260211;23;20405;-79
2023/09/28 01:25:40;;;;;;;2.10;2.00;;;14.60;99.90;;;;;;6254251;23;20425;-83
2023/09/28 01:28:10;;;;;;;2.73;2.63;;;14.50;99.90;;;;;;6253614;23;20484;-84
2023/09/28 01:30:37;;;;;;;1.27;1.13;;;14.60;99.90;;;;;;6261267;23;20415;-83
2023/09/28 01:33:07;;;;;;;1.50;1.50;;;14.50;99.90;;;;;;6268483;22;20398;-84
2023/09/28 01:35:36;;;;;;;2.60;2.40;;;14.50;99.90;;;;;;6265093;23;20448;-83
2023/09/28 01:38:12;;;;;;;2.53;2.00;;;14.40;99.90;;;;;;6256193;23;20409;-81
2023/09/28 01:40:41;;;;;;;3.20;2.83;;;14.30;99.90;;;;;;6252746;23;20377;-81
2023/09/28 01:43:08;;;;;;;3.13;2.93;;;14.30;99.90;;;;;;6251241;23;20401;-82
2023/09/28 01:45:34;;;;;;;4.93;2.47;;;14.50;99.90;;;;;;6225418;23;20389;-80
2023/09/28 01:48:06;;;;;;;2.53;2.43;;;14.40;99.90;;;;;;6251478;23;20379;-81
2023/09/28 01:50:34;;;;;;;1.30;1.30;;;14.30;99.90;;;;;;6251912;23;20781;-81
2023/09/28 01:53:02;;;;;;;2.60;2.40;;;14.30;99.90;;;;;;6251291;23;20616;-82
2023/09/28 01:55:29;;;;;;;3.37;3.07;;;14.20;99.90;;;;;;6226689;23;20506;-82
2023/09/28 01:57:57;;;;;;;3.47;3.27;;;14.20;99.90;;;;;;6256659;23;20404;-82
2023/09/28 02:00:25;;;;;;;2.27;2.17;;;14.20;99.90;;;;;;6263529;22;20382;-85
2023/09/28 02:02:54;;;;;;;2.87;2.67;;;14.10;99.90;;;;;;6262690;22;20379;-80
2023/09/28 02:05:22;;;;;;;3.63;3.43;;;14.10;99.90;;;;;;6260929;22;20472;-82
2023/09/28 02:07:50;;;;;;;1.80;1.70;;;14.10;99.90;;;;;;6261035;22;20405;-83
2023/09/28 02:10:18;;;;;;;2.90;2.80;;;14.10;99.90;;;;;;6234725;23;20447;-84
2023/09/28 02:12:47;;;;;;;1.47;1.37;;;14.10;99.90;;;;;;6250978;23;20393;-81
2023/09/28 02:15:17;;;;;;;2.87;2.77;;;14.00;99.90;;;;;;6251628;23;20432;-84
2023/09/28 02:17:46;;;;;;;4.30;2.57;;;14.00;99.90;;;;;;6251982;23;20424;-86
2023/09/28 02:20:22;;;;;;;3.53;3.43;;;13.90;99.90;;;;;;6252176;23;20425;-85
2023/09/28 02:22:52;;;;;;;4.30;4.00;;;13.90;99.90;;;;;;6227720;23;20476;-83
2023/09/28 02:25:24;;;;;;;1.40;1.40;;;13.90;99.90;;;;;;6253245;23;20390;-83
2023/09/28 02:27:53;;;;;;;1.97;1.87;;;13.90;99.90;;;;;;6253414;23;20686;-85
2023/09/28 02:30:24;;;;;;;5.17;4.67;;;13.80;99.90;;;;;;6233889;23;20397;-82
2023/09/28 02:32:55;;;;;;;3.73;3.43;;;13.80;99.90;;;;;;6273319;22;20376;-83
2023/09/28 02:35:23;;;;;;;3.37;3.13;;;13.70;99.90;;;;;;6273286;22;20491;-86
2023/09/28 02:37:52;;;;;;;1.23;1.23;;;13.70;99.90;;;;;;6246546;22;20476;-85
2023/09/28 02:40:19;;;;;;;3.00;2.63;;;13.60;99.90;;;;;;6263419;22;20409;-83
2023/09/28 02:42:50;;;;;;;3.93;2.93;;;13.50;99.90;;;;;;6252649;23;20405;-82
2023/09/28 02:45:17;;;;;;;3.20;3.00;;;13.50;99.90;;;;;;6227280;23;20459;-84
2023/09/28 02:47:46;;;;;;;2.60;2.50;;;13.70;99.90;;;;;;6252128;23;20791;-86
2023/09/28 02:50:16;;;;;;;2.87;2.73;;;13.40;99.90;;;;;;6252191;23;20424;-82
2023/09/28 02:52:49;;;;;;;0.82;0.82;;;13.40;99.90;;;;;;6251918;23;20381;-83
2023/09/28 02:55:17;;;;;;;1.53;1.47;;;13.40;99.90;;;;;;6225318;23;20250;-83
2023/09/28 02:57:47;;;;;;;2.40;2.30;;;13.40;99.90;;;;;;6250551;23;20428;-81
2023/09/28 03:02:45;;;;;;;3.23;3.13;;;13.30;99.90;;;;;;6250112;23;20388;-82
2023/09/28 03:05:16;;;;;;;2.07;1.97;;;13.30;99.90;;;;;;6223896;23;20405;-80
2023/09/28 03:07:45;;;;;;;1.57;1.50;;;13.40;99.90;;;;;;6251669;23;20698;-78
2023/09/28 03:10:15;;;;;;;3.20;2.90;;;13.60;99.90;;;;;;6250775;23;20694;-79
2023/09/28 03:12:47;;;;;;;4.00;3.80;;;13.50;99.90;;;;;;6254049;23;20205;-81
2023/09/28 03:15:16;;;;;;;2.80;2.30;;;13.50;99.90;;;;;;6251404;23;20507;-81
2023/09/28 03:17:48;;;;;;;1.83;1.73;;;13.60;99.90;;;;;;6253883;23;20381;-83
2023/09/28 03:20:17;;;;;;;1.98;1.88;;;13.60;99.90;;;;;;6226502;23;20219;-79
2023/09/28 03:22:52;;;;;;;2.70;2.60;;;13.60;99.90;;;;;;6251831;23;20179;-80
2023/09/28 03:25:21;;;;;;;2.70;2.50;;;13.60;99.90;;;;;;6225911;23;20188;-86
2023/09/28 03:27:55;;;;;;;3.40;3.20;;;13.60;99.90;;;;;;6251318;23;20405;-87
2023/09/28 03:30:24;;;;;;;3.67;2.90;;;13.60;99.90;;;;;;6252382;23;20164;-78
2023/09/28 03:32:53;;;;;;;5.60;4.00;;;13.60;99.90;;;;;;6251452;23;20428;-79
2023/09/28 03:35:20;;;;;;;4.45;3.55;;;13.60;99.90;;;;;;6251513;23;20262;-82
2023/09/28 03:37:58;;;;;;;2.43;2.33;;;13.60;99.90;;;;;;6250366;23;20184;-86
2023/09/28 03:40:33;;;;;;;6.20;3.08;;;13.60;99.90;;;;;;6251023;23;20406;-83
2023/09/28 03:43:01;;;;;;;3.17;2.97;;;13.50;99.90;;;;;;6251510;23;20159;-84
2023/09/28 03:45:29;;;;;;;2.85;2.70;;;13.50;99.90;;;;;;6250945;23;20669;-82
2023/09/28 03:47:57;;;;;;;3.07;2.87;;;13.50;99.90;;;;;;6252905;23;20182;-84
2023/09/28 03:50:25;;;;;;;2.60;2.40;;;13.50;99.90;;;;;;6252353;23;20408;-83
2023/09/28 03:52:55;;;;;;;1.83;1.63;;;13.50;99.90;;;;;;6251836;23;20622;-83
2023/09/28 03:55:23;;;;;;;3.15;2.92;;;13.60;99.90;;;;;;6252381;23;20409;-81
2023/09/28 03:57:51;;;;;;;2.10;2.00;;;13.60;99.90;;;;;;6227278;23;20278;-81
2023/09/28 04:00:19;;;;;;;1.37;1.33;;;13.60;99.90;;;;;;6253117;23;20602;-81
2023/09/28 04:02:49;;;;;;;3.97;3.00;;;13.60;99.90;;;;;;6254779;23;20401;-82
2023/09/28 04:05:21;;;;;;;4.32;4.03;;;13.60;99.90;;;;;;6256332;23;20399;-87
2023/09/28 04:07:49;;;;;;;4.63;4.38;;;13.50;99.90;;;;;;6254664;23;20210;-81
2023/09/28 04:10:16;;;;;;;4.47;4.15;;;13.60;99.90;;;;;;6253892;23;20167;-83
2023/09/28 04:12:47;;;;;;;2.83;2.35;;;13.50;99.90;;;;;;6255042;23;20194;-79
2023/09/28 04:15:14;;;;;;;1.60;1.55;;;13.50;99.90;;;;;;6252086;23;20198;-81
2023/09/28 04:17:41;;;;;;;2.23;2.13;;;13.50;99.90;;;;;;6252701;23;20519;-80
2023/09/28 04:20:12;;;;;;;3.88;3.53;;;13.40;99.90;;;;;;6253780;23;20386;-82
2023/09/28 04:22:39;;;;;;;1.98;1.88;;;13.40;99.90;;;;;;6253115;23;20176;-83
2023/09/28 04:25:07;;;;;;;3.53;3.25;;;13.40;99.90;;;;;;6254033;23;20175;-83
2023/09/28 04:27:38;;;;;;;4.40;4.00;;;13.30;99.90;;;;;;6253681;23;20211;-80
2023/09/28 04:30:05;;;;;;;6.53;5.00;;;13.30;99.90;;;;;;6253338;23;20184;-82
2023/09/28 04:32:32;;;;;;;3.35;3.20;;;13.20;99.90;;;;;;6251988;23;20397;-81
2023/09/28 04:35:05;;;;;;;2.40;2.30;;;13.20;99.90;;;;;;6226680;23;20414;-81
2023/09/28 04:37:34;;;;;;;3.92;3.60;;;13.20;99.90;;;;;;6226753;23;20167;-80
2023/09/28 04:40:01;;;;;;;1.63;1.60;;;13.20;99.90;;;;;;6253980;23;20191;-85
2023/09/28 04:42:29;;;;;;;3.17;2.97;;;13.30;99.90;;;;;;6252777;23;20176;-83
2023/09/28 04:44:56;;;;;;;2.20;1.87;;;13.40;99.90;;;;;;6252524;23;20403;-79
2023/09/28 04:47:23;;;;;;;2.03;1.92;;;13.30;99.90;;;;;;6252347;23;20764;-81
2023/09/28 04:49:50;;;;;;;4.13;2.80;;;13.20;99.90;;;;;;6251683;23;20273;-83
2023/09/28 04:52:17;;;;;;;3.03;2.75;;;13.10;99.90;;;;;;6258132;23;20176;-82
2023/09/28 04:54:44;;;;;;;10.55;3.35;;;13.10;99.90;;;;;;6255069;23;20415;-81
2023/09/28 04:57:11;;;;;;;1.65;1.55;;;13.20;99.90;;;;;;6252571;23;20199;-81
2023/09/28 04:59:38;;;;;;;2.40;2.28;;;13.20;99.90;;;;;;6255098;23;20234;-78
2023/09/28 05:02:07;;;;;;;1.42;1.33;;;13.20;99.90;;;;;;6274030;22;20183;-80
2023/09/28 05:04:34;;;;;;;4.10;3.85;;;13.20;99.90;;;;;;6274001;22;20175;-82
2023/09/28 05:07:04;;;;;;;4.07;3.75;;;13.10;99.90;;;;;;6272157;22;20219;-82
2023/09/28 05:09:32;;;;;;;4.00;2.80;;;13.10;99.90;;;;;;6235230;23;20219;-83
2023/09/28 05:12:00;;;;;;;7.53;4.07;;;12.90;99.90;;;;;;6229140;23;20190;-84
2023/09/28 05:14:31;;;;;;;1.48;1.38;;;13.00;99.90;;;;;;6231840;23;20168;-83
2023/09/28 05:16:57;;;;;;;1.45;1.45;;;13.00;99.90;;;;;;6253570;23;20207;-80
2023/09/28 05:19:25;;;;;;;2.33;2.13;;;13.00;99.90;;;;;;6251660;23;20195;-82
2023/09/28 05:21:53;;;;;;;17.27;5.10;;;13.10;99.90;;;;;;6252310;23;20237;-81
2023/09/28 05:24:21;;;;;;;3.72;3.05;;;13.20;99.90;;;;;;6253282;23;20406;-81
2023/09/28 05:26:49;;;;;;;2.07;1.97;;;13.20;99.90;;;;;;6224718;23;20187;-81
2023/09/28 05:29:16;;;;;;;2.70;2.50;;;13.30;99.90;;;;;;6252083;23;20727;-79
2023/09/28 05:31:44;;;;;;;4.40;3.80;;;13.30;99.90;;;;;;6228218;23;20348;-85
2023/09/28 05:34:13;;;;;;;1.77;1.67;;;13.60;99.90;;;;;;6252025;23;20806;-83
2023/09/28 05:36:40;;;;;;;5.20;4.82;;;13.50;99.90;;;;;;6253515;23;20214;-82
2023/09/28 05:39:08;;;;;;;3.42;3.22;;;13.50;99.90;;;;;;6252207;23;20184;-82
2023/09/28 05:41:36;;;;;;;3.90;3.70;;;13.60;99.90;;;;;;6252697;23;20221;-81
2023/09/28 05:44:04;;;;;;;3.80;3.43;;;13.80;99.90;;;;;;6226570;23;20389;-79
2023/09/28 05:46:32;;;;;;;5.70;3.30;;;14.00;99.90;;;;;;6253557;23;20412;-83
2023/09/28 05:48:59;;;;;;;1.70;1.60;;;14.20;99.90;;;;;;6253572;23;20359;-77
2023/09/28 05:51:27;;;;;;;2.13;1.97;;;14.30;99.90;;;;;;6257632;23;20401;-79
2023/09/28 05:53:54;;;;;;;13.27;4.00;;;14.30;99.90;;;;;;6262982;22;20741;-82
2023/09/28 05:56:22;;;;;;;4.83;3.73;;;14.40;99.90;;;;;;6240943;23;20483;-83
2023/09/28 05:59:03;;;;;;;6.07;5.50;;;14.30;99.90;;;;;;6233590;23;20412;-81
2023/09/28 06:01:30;;;;;;;3.57;3.40;;;14.60;99.90;;;;;;6253581;23;20372;-86
2023/09/28 06:03:57;;;;;;;1.30;1.30;;;14.90;99.90;;;;;;6255415;23;20408;-87
2023/09/28 06:06:25;;;;;;;3.23;2.93;;;15.50;99.90;;;;;;6255616;23;20393;-81
2023/09/28 06:08:52;;;;;;;2.73;2.57;;;15.80;99.90;;;;;;6255707;23;20391;-82
2023/09/28 06:11:20;;;;;;;3.43;3.23;;;16.10;99.90;;;;;;6234585;23;20506;-84
2023/09/28 06:13:47;;;;;;;3.10;2.43;;;16.40;99.90;;;;;;6264810;23;20381;-84
2023/09/28 06:16:38;;;;;;;2.10;1.90;;;16.30;99.90;;;;;;6261613;23;20432;-88
2023/09/28 06:19:05;;;;;;;4.27;3.97;;;16.10;99.90;;;;;;6254540;23;20413;-84
2023/09/28 06:21:32;;;;;;;3.67;3.37;;;16.20;99.90;;;;;;6228617;23;20604;-85
2023/09/28 06:24:00;;;;;;;3.17;2.93;;;16.30;99.90;;;;;;6254570;23;20771;-82
2023/09/28 06:26:29;;;;;;;2.30;2.10;;;16.20;99.90;;;;;;6258420;23;20488;-87
2023/09/28 06:29:08;;;;;;;3.10;3.00;;;16.10;99.90;;;;;;6259517;23;20405;-85
2023/09/28 06:31:37;;;;;;;1.60;1.33;;;16.00;99.90;;;;;;6255245;23;20452;-85
2023/09/28 06:34:08;;;;;;;1.47;1.47;;;15.90;99.90;;;;;;6262895;22;20387;-83
2023/09/28 06:36:35;;;;;;;3.00;2.90;;;15.90;99.90;;;;;;6236228;23;20595;-81
2023/09/28 06:39:13;;;;;;;5.30;4.93;;;16.00;99.90;;;;;;6254797;23;20369;-86
2023/09/28 06:41:41;;;;;;;3.57;3.40;;;16.40;99.90;;;;;;6227601;23;20393;-84
2023/09/28 06:44:10;;;;;;;2.83;2.30;;;16.70;99.90;;;;;;6255049;23;20383;-87
2023/09/28 06:46:39;;;;;;;9.77;5.00;;;16.70;99.90;;;;;;6253936;23;20408;-86
2023/09/28 06:49:11;;;;;;;3.27;3.07;;;16.70;99.90;;;;;;6255056;23;20447;-86
2023/09/28 06:51:38;;;;;;;2.23;2.10;;;16.80;99.90;;;;;;6255406;23;20389;-88
2023/09/28 06:54:08;;;;;;;3.73;3.53;;;17.30;99.90;;;;;;6253638;23;20387;-85
2023/09/28 06:56:37;;;;;;;2.37;2.27;;;17.60;99.90;;;;;;6254098;23;20890;-82
2023/09/28 06:59:04;;;;;;;4.77;3.27;;;17.80;99.90;;;;;;6227267;23;21044;-86
2023/09/28 07:01:33;;;;;;;3.80;3.40;;;17.80;99.90;;;;;;6253396;23;20408;-85
2023/09/28 07:04:03;;;;;;;1.80;1.70;;;18.10;99.90;;;;;;6229130;23;20375;-84
2023/09/28 07:06:32;;;;;;;1.40;1.30;;;18.50;99.90;;;;;;6239378;22;20367;-84
2023/09/28 07:09:02;;;;;;;1.27;1.27;;;19.00;99.90;;;;;;6241744;23;20401;-83
2023/09/28 07:11:32;;;;;;;1.77;1.67;;;19.40;99.90;;;;;;6244573;23;20401;-85
2023/09/28 07:14:00;;;;;;;6.63;2.50;;;19.50;99.90;;;;;;6262730;22;20587;-85
2023/09/28 07:16:30;;;;;;;0.90;0.90;;;19.40;99.90;;;;;;6254737;23;20434;-86
2023/09/28 07:18:57;;;;;;;1.83;1.73;;;19.30;99.90;;;;;;6254701;23;20400;-88
2023/09/28 07:21:25;;;;;;;1.97;1.87;;;19.40;99.90;;;;;;6254026;23;20415;-84
2023/09/28 07:23:52;;;;;;;5.13;4.83;;;20.00;99.90;;;;;;6231340;22;20393;-87
2023/09/28 07:26:34;;;;;;;1.93;1.83;;;20.60;99.90;;;;;;6251906;23;20414;-85
2023/09/28 07:29:01;;;;;;;2.17;2.07;;;22.20;99.90;;;;;;6253989;23;20391;-86
2023/09/28 07:31:31;;;;;;;4.70;4.30;;;22.80;99.90;;;;;;6254719;23;20393;-87
2023/09/28 07:33:58;;;;;;;2.07;1.97;;;23.10;99.90;;;;;;6254301;23;20622;-86
2023/09/28 07:36:26;;;;;;;2.37;2.13;;;23.70;99.90;;;;;;6255116;23;20515;-89
2023/09/28 07:38:54;;;;;;;1.87;1.77;;;24.00;99.90;;;;;;6227113;23;20402;-86
2023/09/28 07:41:23;;;;;;;4.57;4.03;;;24.40;99.90;;;;;;6251653;23;20384;-87
2023/09/28 07:43:50;;;;;;;2.30;2.20;;;25.10;99.90;;;;;;6256452;23;20412;-88
2023/09/28 07:46:18;;;;;;;1.60;1.50;;;25.10;99.90;;;;;;6231577;23;20501;-84
2023/09/28 07:48:45;;;;;;;2.60;2.43;;;25.70;99.90;;;;;;6225065;23;20610;-87
2023/09/28 07:51:14;;;;;;;1.40;1.40;;;25.90;99.90;;;;;;6254338;23;20459;-88
2023/09/28 07:53:41;;;;;;;2.13;2.03;;;25.70;99.90;;;;;;6256133;23;20408;-89
2023/09/28 07:56:10;;;;;;;3.50;3.10;;;25.90;99.90;;;;;;6258189;23;20369;-86
2023/09/28 07:58:39;;;;;;;1.57;1.47;;;25.90;99.90;;;;;;6257741;23;20426;-86
2023/09/28 08:01:06;;;;;;;3.73;3.53;;;26.10;99.90;;;;;;6227780;23;20407;-89
2023/09/28 08:03:35;;;;;;;3.20;3.00;;;25.80;99.90;;;;;;6258369;23;20431;-84
2023/09/28 08:06:03;;;;;;;1.63;1.53;;;26.00;99.90;;;;;;6231656;23;20650;-86
2023/09/28 08:08:30;;;;;;;2.40;2.20;;;26.20;99.90;;;;;;6224768;23;20542;-88
2023/09/28 08:10:57;;;;;;;1.67;1.57;;;27.80;98.90;;;;;;6258035;23;20396;-86
2023/09/28 08:13:24;;;;;;;1.77;1.67;;;27.60;97.10;;;;;;6256988;23;20461;-84
2023/09/28 08:15:52;;;;;;;1.73;1.63;;;28.00;96.70;;;;;;6226479;23;20459;-86
2023/09/28 08:18:19;;;;;;;2.87;2.70;;;28.60;95.70;;;;;;6231067;23;20481;-87
2023/09/28 08:20:49;;;;;;;2.20;2.10;;;28.50;94.10;;;;;;6254152;23;20404;-84
2023/09/28 08:23:33;;;;;;;1.60;1.50;;;27.80;93.00;;;;;;6253239;23;20406;-83
2023/09/28 08:26:00;;;;;;;19.77;2.80;;;28.20;93.80;;;;;;6256008;23;20403;-90
2023/09/28 08:28:28;;;;;;;1.70;1.60;;;28.70;92.70;;;;;;6257058;23;20459;-89
2023/09/28 08:30:56;;;;;;;1.03;1.03;;;28.50;93.20;;;;;;6257622;23;20396;-85
2023/09/28 08:33:33;;;;;;;2.00;1.90;;;27.90;92.40;;;;;;6259467;23;20388;-89
2023/09/28 08:36:00;;;;;;;1.33;1.33;;;28.60;92.60;;;;;;6231107;23;20422;-84
2023/09/28 08:38:29;;;;;;;1.20;1.20;;;28.70;90.70;;;;;;6258635;23;20470;-88
2023/09/28 08:41:01;;;;;;;2.23;2.13;;;28.00;92.10;;;;;;6232686;23;20413;-85
2023/09/28 08:43:32;;;;;;;1.30;1.30;;;27.90;90.90;;;;;;6259031;23;20587;-86
2023/09/28 08:46:03;;;;;;;3.40;3.13;;;29.00;91.50;;;;;;6263021;22;20390;-82
2023/09/28 08:48:37;;;;;;;3.77;3.47;;;28.60;90.10;;;;;;6230068;22;20447;-84
2023/09/28 08:51:10;;;;;;;1.37;1.37;;;28.30;90.20;;;;;;6258957;23;20406;-90
2023/09/28 08:53:40;;;;;;;1.77;1.67;;;28.60;90.40;;;;;;6263430;23;20386;-88
2023/09/28 08:56:08;;;;;;;1.60;1.50;;;29.20;87.70;;;;;;6248897;22;20391;-86
2023/09/28 08:58:36;;;;;;;1.57;1.47;;;28.40;85.90;;;;;;6274249;22;20436;-86
2023/09/28 09:03:35;;;;;;;2.90;2.70;;;27.60;88.80;;;;;;6209361;23;20433;-83
2023/09/28 09:06:11;;;;;;;1.97;1.87;;;28.00;88.20;;;;;;6185929;23;20397;-88
2023/09/28 09:08:45;;;;;;;2.43;2.33;;;27.90;89.30;;;;;;6260632;22;20438;-81
2023/09/28 09:16:43;;;;;;;1.43;1.40;;;27.30;90.50;;;;;;6169845;23;20420;-84
2023/09/28 09:21:45;;;;;;;1.63;1.57;;;26.50;91.70;;;;;;6233367;22;20457;-81
2023/09/28 09:24:14;;;;;;;3.10;2.87;;;26.70;90.70;;;;;;6258094;23;20405;-85
2023/09/28 09:26:49;;;;;;;1.80;1.70;;;26.40;91.30;;;;;;6229821;23;20382;-86
2023/09/28 09:29:18;;;;;;;1.70;1.60;;;25.90;91.10;;;;;;6256620;23;20400;-83
2023/09/28 09:31:49;;;;;;;1.63;1.53;;;25.90;91.90;;;;;;6256897;23;20413;-83
2023/09/28 09:34:20;;;;;;;1.83;1.73;;;25.80;92.10;;;;;;6254756;22;20859;-84
2023/09/28 09:39:32;;;;;;;1.17;1.17;;;25.90;93.10;;;;;;6255122;22;20570;-86
2023/09/28 09:42:02;;;;;;;1.57;1.47;;;26.00;92.20;;;;;;6256202;23;20483;-87
2023/09/28 09:44:30;;;;;;;2.03;1.80;;;25.90;91.80;;;;;;6235028;23;20392;-88
2023/09/28 09:46:57;;;;;;;1.00;1.00;;;26.00;91.60;;;;;;6257503;23;20385;-84
2023/09/28 09:49:27;;;;;;;0.83;0.83;;;26.00;91.00;;;;;;6259570;23;20393;-86
2023/09/28 09:52:00;;;;;;;1.50;1.40;;;25.80;90.80;;;;;;6259026;23;20400;-86
2023/09/28 09:54:27;;;;;;;1.17;1.17;;;25.90;89.70;;;;;;6256727;23;20401;-86
2023/09/28 09:56:54;;;;;;;1.20;1.20;;;25.80;90.30;;;;;;6231791;23;20783;-87
2023/09/28 09:59:22;;;;;;;1.80;1.70;;;25.70;88.30;;;;;;6258922;23;20394;-86
2023/09/28 10:01:52;;;;;;;1.10;1.10;;;25.70;88.00;;;;;;6257704;23;20764;-88
2023/09/28 10:04:27;;;;;;;1.30;1.30;;;25.50;88.90;;;;;;6261638;22;20495;-84
2023/09/28 10:06:57;;;;;;;1.70;1.60;;;25.70;89.10;;;;;;6258420;23;20729;-81
2023/09/28 10:09:27;;;;;;;1.93;1.70;;;25.60;89.50;;;;;;6265711;22;20368;-86
2023/09/28 10:11:55;;;;;;;3.27;2.97;;;25.70;90.00;;;;;;6231468;22;20515;-84
2023/09/28 10:14:22;;;;;;;1.13;1.13;;;25.80;90.20;;;;;;6271603;22;20374;-85
2023/09/28 10:16:54;;;;;;;3.13;1.40;;;25.90;90.10;;;;;;6269631;22;20443;-83
2023/09/28 10:19:24;;;;;;;1.83;1.73;;;25.90;89.30;;;;;;6262265;23;20376;-87
2023/09/28 10:21:55;;;;;;;1.00;1.00;;;26.20;89.50;;;;;;6259986;23;20454;-88
2023/09/28 10:24:31;;;;;;;3.27;3.00;;;26.10;90.30;;;;;;6258560;23;20404;-84
2023/09/28 10:27:08;;;;;;;1.03;1.03;;;25.90;88.70;;;;;;6258304;23;20404;-85
2023/09/28 10:29:35;;;;;;;1.57;1.47;;;26.00;89.00;;;;;;6259765;23;20383;-88
2023/09/28 10:32:25;;;;;;;1.73;1.57;;;25.90;90.30;;;;;;6264195;23;20623;-83
2023/09/28 10:35:22;;;;;;;2.30;2.07;;;25.90;90.00;;;;;;6261645;22;20441;-81
2023/09/28 10:38:17;;;;;;;2.77;2.03;;;25.90;87.50;;;;;;6268451;22;20429;-84
2023/09/28 10:41:21;;;;;;;1.33;1.33;;;25.90;88.20;;;;;;6269326;22;20378;-81
2023/09/28 10:43:50;;;;;;;0.90;0.90;;;26.00;88.80;;;;;;6184251;23;20417;-84
2023/09/28 10:46:19;;;;;;;1.43;1.43;;;26.10;86.60;;;;;;6233607;23;20397;-85
2023/09/28 10:48:47;;;;;;;1.00;1.00;;;25.80;87.80;;;;;;6266866;22;20447;-88
2023/09/28 10:51:16;;;;;;;2.27;2.17;;;25.90;88.50;;;;;;6264309;22;20807;-85
2023/09/28 10:53:45;;;;;;;1.10;1.10;;;26.00;87.20;;;;;;6261611;22;20386;-85
2023/09/28 10:56:12;;;;;;;1.00;1.00;;;26.00;88.40;;;;;;6260886;23;20397;-86
2023/09/28 10:58:45;;;;;;;1.33;1.23;;;26.10;87.70;;;;;;6267876;22;20441;-83
2023/09/28 11:01:13;;;;;;;3.63;1.60;;;26.20;86.60;;;;;;6267531;22;20389;-83
2023/09/28 11:03:41;;;;;;;2.00;1.90;;;26.20;86.10;;;;;;6265976;22;20444;-84
2023/09/28 11:06:13;;;;;;;1.00;1.00;;;26.00;86.90;;;;;;6269861;22;20407;-82
2023/09/28 11:08:42;;;;;;;1.27;1.20;;;26.10;85.60;;;;;;6269481;22;20416;-81
2023/09/28 11:11:21;;;;;;;1.00;1.00;;;26.10;86.00;;;;;;6239139;23;20420;-87
2023/09/28 11:13:50;;;;;;;1.27;1.27;;;26.20;86.00;;;;;;6215214;22;20443;-85
2023/09/28 11:16:20;;;;;;;1.17;1.17;;;26.30;86.80;;;;;;6292103;22;20585;-87
2023/09/28 11:18:49;;;;;;;1.73;1.63;;;26.50;85.20;;;;;;6295813;22;20450;-86
2023/09/28 11:21:17;;;;;;;1.40;1.40;;;26.50;84.60;;;;;;6249720;22;20499;-85
2023/09/28 11:23:47;;;;;;;1.93;1.83;;;26.50;85.20;;;;;;6261032;22;20756;-88
2023/09/28 11:26:21;;;;;;;2.73;2.63;;;26.50;82.40;;;;;;6265540;22;20377;-88
2023/09/28 11:28:50;;;;;;;18.23;3.23;;;26.50;83.00;;;;;;6253276;22;20445;-81
2023/09/28 11:31:18;;;;;;;0.90;0.90;;;26.60;82.00;;;;;;6246400;22;20363;-83
2023/09/28 11:33:47;;;;;;;2.20;2.10;;;26.60;81.80;;;;;;6243758;22;20395;-84
2023/09/28 11:36:20;;;;;;;5.90;3.57;;;26.60;81.70;;;;;;6237087;23;20583;-88
2023/09/28 11:38:51;;;;;;;1.77;1.33;;;26.60;82.40;;;;;;6230653;23;20409;-85
2023/09/28 11:41:21;;;;;;;1.30;1.30;;;26.40;83.00;;;;;;6259065;23;20401;-85
2023/09/28 11:43:51;;;;;;;1.00;1.00;;;26.40;83.00;;;;;;6257808;23;20385;-86
2023/09/28 11:46:22;;;;;;;2.97;2.87;;;26.40;84.10;;;;;;6257530;23;20369;-85
2023/09/28 11:49:04;;;;;;;1.67;1.57;;;26.40;81.70;;;;;;6254928;23;20403;-85
2023/09/28 11:51:35;;;;;;;1.20;1.20;;;26.50;79.60;;;;;;6254603;23;20409;-84
2023/09/28 11:54:11;;;;;;;1.40;1.30;;;26.40;78.80;;;;;;6228489;23;20399;-86
2023/09/28 11:56:44;;;;;;;1.40;1.30;;;26.40;78.40;;;;;;6230960;23;20413;-85
2023/09/28 11:59:15;;;;;;;1.00;1.00;;;26.50;77.50;;;;;;6256318;23;20439;-86
2023/09/28 12:01:45;;;;;;;1.83;1.73;;;26.60;77.30;;;;;;6259692;23;20382;-86
2023/09/28 12:04:13;;;;;;;2.73;1.70;;;26.60;77.40;;;;;;6259033;23;20408;-86
2023/09/28 12:06:43;;;;;;;1.87;1.77;;;26.60;77.20;;;;;;6259426;23;20891;-88
2023/09/28 12:09:11;;;;;;;1.20;1.20;;;26.70;75.80;;;;;;6256431;23;20392;-89
2023/09/28 12:11:46;;;;;;;16.63;2.80;;;26.60;74.60;;;;;;6246632;22;20456;-86
2023/09/28 12:16:57;;;;;;;1.00;1.00;;;26.80;75.70;;;;;;6257487;22;20427;-87
2023/09/28 12:19:24;;;;;;;3.23;1.77;;;26.90;76.90;;;;;;6261162;22;20585;-85
2023/09/28 12:21:51;;;;;;;1.00;1.00;;;26.80;76.10;;;;;;6257589;23;20461;-83
2023/09/28 12:24:18;;;;;;;0.90;0.90;;;26.80;75.00;;;;;;6256962;23;20480;-87
2023/09/28 12:26:48;;;;;;;2.40;2.20;;;26.70;74.90;;;;;;6242161;22;20730;-80
2023/09/28 12:29:17;;;;;;;1.40;1.40;;;26.50;74.20;;;;;;6260450;22;20422;-88
2023/09/28 12:31:48;;;;;;;1.10;1.10;;;26.60;75.20;;;;;;6256676;22;20384;-88
2023/09/28 12:36:57;;;;;;;2.23;2.13;;;26.70;75.50;;;;;;6210935;22;20502;-86
2023/09/28 12:39:25;;;;;;;1.27;1.17;;;26.70;75.40;;;;;;6233059;23;20960;-84
2023/09/28 12:47:04;;;;;;;2.13;1.93;;;26.80;75.70;;;;;;6263538;22;20432;-86
2023/09/28 12:49:32;;;;;;;1.30;1.30;;;26.70;74.10;;;;;;6232575;23;20415;-85
2023/09/28 12:52:09;;;;;;;;;;;;;;;;;;;;;
2023/09/28 12:54:37;;;;;;;2.30;2.10;;;26.80;73.10;;;;;;6259780;23;20764;-89
2023/09/28 12:57:07;;;;;;;1.67;1.57;;;26.80;73.50;;;;;;6259526;23;20428;-86
2023/09/28 12:59:37;;;;;;;1.67;1.57;;;26.90;73.50;;;;;;6232290;23;20416;-87
2023/09/28 13:02:05;;;;;;;1.37;1.33;;;26.80;72.60;;;;;;6233835;23;20393;-84
2023/09/28 13:04:33;;;;;;;1.07;1.07;;;26.80;72.60;;;;;;6260181;23;20507;-81
2023/09/28 13:07:01;;;;;;;1.53;1.43;;;27.00;73.20;;;;;;6253583;22;20449;-80
2023/09/28 13:09:31;;;;;;;1.73;1.63;;;26.90;71.00;;;;;;6263941;23;20428;-89
2023/09/28 13:12:12;;;;;;;1.97;1.87;;;26.90;71.20;;;;;;6234085;23;20429;-83
2023/09/28 13:14:45;;;;;;;1.00;1.00;;;26.90;70.40;;;;;;6258795;23;20354;-86
2023/09/28 13:17:12;;;;;;;1.10;1.10;;;26.70;72.40;;;;;;6182235;23;20851;-89
2023/09/28 13:19:40;;;;;;;1.33;1.30;;;26.70;70.20;;;;;;6257048;23;20477;-79
2023/09/28 13:22:08;;;;;;;1.30;1.30;;;26.70;70.00;;;;;;6258208;23;20404;-89
2023/09/28 13:24:37;;;;;;;1.33;1.33;;;26.60;71.00;;;;;;6258780;23;20447;-86
2023/09/28 13:27:10;;;;;;;7.47;4.10;;;26.50;70.50;;;;;;6256429;23;20756;-85
2023/09/28 13:29:40;;;;;;;0.90;0.90;;;26.60;70.70;;;;;;6256033;23;20407;-86